Time;durP1;ratioP1;P1;durP2;ratioP2;P2;SDS_P1;SDS_P2;PMS_P1;PMS_P2;Temp;Humidity;BMP_temperature;BMP_pressure;BME280_temperature;BME280_humidity;BME280_pressure;Samples;Min_cycle;Max_cycle;Signal;HPM_P1;HPM_P2
2021/12/01 00:00:35;;;;;;;28.62;15.83;;;;;;;-0.66;100.00;98073.14;1728657;80;21007;-86
2021/12/01 00:03:02;;;;;;;23.90;13.58;;;;;;;-0.68;100.00;98070.19;1748656;82;21105;-82
2021/12/01 00:05:30;;;;;;;25.68;13.85;;;;;;;-0.69;100.00;98073.23;1702968;83;21046;-82
2021/12/01 00:07:57;;;;;;;26.23;14.15;;;;;;;-0.72;100.00;98059.52;1745676;82;21596;-82
2021/12/01 00:10:26;;;;;;;23.25;11.70;;;;;;;-0.75;100.00;98061.73;1718057;80;21064;-85
2021/12/01 00:12:55;;;;;;;24.07;13.05;;;;;;;-0.76;100.00;98063.05;1779286;80;21053;-84
2021/12/01 00:15:23;;;;;;;25.82;12.70;;;;;;;-0.82;100.00;98062.77;1750223;80;21100;-84
2021/12/01 00:17:50;;;;;;;20.75;11.40;;;;;;;-0.83;100.00;98062.35;1717433;83;21039;-90
2021/12/01 00:20:19;;;;;;;22.85;12.65;;;;;;;-0.84;100.00;98063.25;1721936;82;21113;-93
2021/12/01 00:22:48;;;;;;;23.00;11.15;;;;;;;-0.82;100.00;98066.66;1715725;82;21118;-91
2021/12/01 00:25:22;;;;;;;22.13;11.35;;;;;;;-0.82;100.00;98061.48;1716640;82;21089;-90
2021/12/01 00:27:51;;;;;;;26.05;12.98;;;;;;;-0.81;100.00;98052.83;1721299;82;21107;-92
2021/12/01 00:30:18;;;;;;;25.80;13.93;;;;;;;-0.80;100.00;98051.13;1717046;82;21052;-91
2021/12/01 00:32:45;;;;;;;29.87;14.90;;;;;;;-0.76;100.00;98051.01;1712763;82;21064;-90
2021/12/01 00:35:13;;;;;;;24.20;13.10;;;;;;;-0.79;100.00;98042.47;1717477;82;21145;-90
2021/12/01 00:37:40;;;;;;;28.67;14.58;;;;;;;-0.76;100.00;98043.25;1720042;82;21075;-90
2021/12/01 00:40:09;;;;;;;26.87;15.23;;;;;;;-0.78;100.00;98042.44;1715094;83;21220;-91
2021/12/01 00:42:37;;;;;;;30.25;15.13;;;;;;;-0.80;100.00;98035.61;1723233;82;27614;-91
2021/12/01 00:45:09;;;;;;;29.98;15.18;;;;;;;-0.80;100.00;98033.87;1728772;82;21049;-88
2021/12/01 00:47:52;;;;;;;32.67;16.57;;;;;;;-0.80;100.00;98033.87;1717896;82;21576;-89
2021/12/01 00:50:30;;;;;;;31.40;15.48;;;;;;;-0.81;100.00;98042.49;1715728;83;21123;-92
2021/12/01 00:53:02;;;;;;;32.67;17.77;;;;;;;-0.80;100.00;98042.91;1715528;83;21143;-85
2021/12/01 00:55:30;;;;;;;32.45;17.87;;;;;;;-0.80;100.00;98036.45;1714523;83;21035;-83
2021/12/01 00:57:58;;;;;;;32.10;16.27;;;;;;;-0.79;100.00;98041.17;1715826;82;21066;-84
2021/12/01 01:00:26;;;;;;;28.10;14.05;;;;;;;-0.79;100.00;98039.88;1747219;80;21112;-84
2021/12/01 01:02:53;;;;;;;25.45;11.45;;;;;;;-0.82;100.00;98040.81;1730001;80;21049;-86
2021/12/01 01:05:20;;;;;;;23.07;12.15;;;;;;;-0.83;100.00;98031.34;1718831;82;21084;-83
2021/12/01 01:07:47;;;;;;;25.23;13.40;;;;;;;-0.88;100.00;98031.91;1714656;83;21118;-81
2021/12/01 01:18:29;;;;;;;24.92;12.68;;;;;;;-0.92;100.00;98016.06;1735416;80;21053;-79
2021/12/01 01:20:55;;;;;;;23.30;11.97;;;;;;;-0.97;100.00;98016.17;1738403;82;21058;-80
2021/12/01 01:23:24;;;;;;;23.87;12.37;;;;;;;-1.05;100.00;98007.78;1672516;85;21050;-80
2021/12/01 01:25:54;;;;;;;23.55;12.70;;;;;;;-1.07;100.00;98010.39;1705287;84;21561;-80
2021/12/01 01:28:20;;;;;;;25.60;13.45;;;;;;;-1.12;100.00;98012.24;1706167;82;21085;-81
2021/12/01 01:30:48;;;;;;;23.32;13.15;;;;;;;-1.12;100.00;97998.48;1714062;82;21134;-81
2021/12/01 01:33:14;;;;;;;24.23;13.00;;;;;;;-1.14;100.00;97998.52;1713738;82;21097;-82
2021/12/01 01:35:41;;;;;;;28.47;14.43;;;;;;;-1.17;100.00;97990.84;1716966;83;21580;-86
2021/12/01 01:38:07;;;;;;;23.67;12.73;;;;;;;-1.18;100.00;97985.25;1717635;83;21049;-85
2021/12/01 01:40:37;;;;;;;26.42;14.58;;;;;;;-1.17;100.00;97990.84;1717375;83;21042;-84
2021/12/01 01:43:06;;;;;;;27.00;14.53;;;;;;;-1.18;100.00;97983.13;1717767;83;21879;-84
2021/12/01 01:45:33;;;;;;;24.67;14.20;;;;;;;-1.16;100.00;97971.02;1717324;83;21056;-84
2021/12/01 01:48:03;;;;;;;31.97;16.07;;;;;;;-1.17;100.00;97977.09;1717424;83;21062;-84
2021/12/01 01:50:36;;;;;;;31.05;15.85;;;;;;;-1.19;100.00;97964.20;1717010;83;21069;-84
2021/12/01 01:53:17;;;;;;;33.53;19.07;;;;;;;-1.22;100.00;97956.54;1716592;83;21109;-85
2021/12/01 01:55:47;;;;;;;32.85;18.17;;;;;;;-1.23;100.00;97958.70;1711876;83;21812;-85
2021/12/01 01:58:14;;;;;;;30.48;17.12;;;;;;;-1.26;100.00;97947.16;1712488;82;21070;-85
2021/12/01 02:00:51;;;;;;;33.60;17.55;;;;;;;-1.29;100.00;97952.38;1712124;82;21070;-85
2021/12/01 02:03:15;;;;;;;33.60;18.27;;;;;;;-1.31;100.00;97953.73;1719259;82;21057;-86
2021/12/01 02:05:42;;;;;;;24.12;10.30;;;;;;;-1.33;100.00;97954.66;1709961;83;21073;-85
2021/12/01 02:08:51;;;;;;;30.88;16.75;;;;;;;-1.34;100.00;97954.23;1709810;83;21233;-84
2021/12/01 02:10:41;;;;;;;32.98;16.15;;;;;;;-1.37;100.00;97949.16;1693220;83;21029;-86
2021/12/01 02:13:08;;;;;;;31.55;16.17;;;;;;;-1.36;100.00;97950.83;1709654;83;21065;-82
2021/12/01 02:15:36;;;;;;;30.73;18.07;;;;;;;-1.38;100.00;97950.02;1727441;80;21014;-82
2021/12/01 02:18:03;;;;;;;33.92;16.17;;;;;;;-1.35;100.00;97946.09;1736594;82;21024;-82
2021/12/01 02:20:29;;;;;;;27.85;14.18;;;;;;;-1.38;100.00;97950.89;1735879;82;21786;-82
2021/12/01 02:22:59;;;;;;;30.35;17.00;;;;;;;-1.40;100.00;97944.04;1740000;82;21089;-82
2021/12/01 02:25:26;;;;;;;28.27;16.23;;;;;;;-1.40;100.00;97941.46;1744150;82;21123;-82
2021/12/01 02:27:53;;;;;;;39.55;17.90;;;;;;;-1.42;100.00;97947.97;1744808;82;21057;-82
2021/12/01 02:30:20;;;;;;;31.52;17.57;;;;;;;-1.45;100.00;97937.70;1744207;82;21130;-83
2021/12/01 02:32:46;;;;;;;33.05;15.80;;;;;;;-1.46;100.00;97939.88;1724247;82;21200;-82
2021/12/01 02:35:13;;;;;;;27.75;14.68;;;;;;;-1.49;100.00;97930.48;1678506;85;21062;-83
2021/12/01 02:37:40;;;;;;;23.80;12.63;;;;;;;-1.50;100.00;97931.35;1713105;83;21147;-84
2021/12/01 02:40:09;;;;;;;20.80;12.30;;;;;;;-1.51;100.00;97932.25;1684858;83;21564;-85
2021/12/01 02:42:36;;;;;;;24.92;12.07;;;;;;;-1.52;100.00;97925.41;1679441;85;21573;-85
2021/12/01 02:45:07;;;;;;;20.82;11.22;;;;;;;-1.52;100.00;97924.11;1716730;82;21050;-85
2021/12/01 02:47:34;;;;;;;23.32;12.55;;;;;;;-1.54;100.00;97927.17;1717452;83;21549;-83
2021/12/01 02:50:01;;;;;;;19.95;11.93;;;;;;;-1.54;100.00;97934.05;1738684;82;21069;-83
2021/12/01 02:52:31;;;;;;;21.02;10.88;;;;;;;-1.54;100.00;97931.45;1744444;82;21101;-83
2021/12/01 02:54:58;;;;;;;27.80;12.58;;;;;;;-1.59;100.00;97930.28;1716047;82;21112;-80
2021/12/01 02:57:26;;;;;;;22.48;12.35;;;;;;;-1.55;100.00;97928.03;1744326;82;21367;-83
2021/12/01 02:59:53;;;;;;;17.35;8.53;;;;;;;-1.53;100.00;97924.98;1719439;82;21614;-83
2021/12/01 03:02:19;;;;;;;21.48;12.60;;;;;;;-1.52;100.00;97930.56;1718163;83;21105;-81
2021/12/01 03:04:46;;;;;;;25.00;11.78;;;;;;;-1.51;100.00;97920.63;1718033;83;21031;-84
2021/12/01 03:07:13;;;;;;;24.27;11.57;;;;;;;-1.50;100.00;97922.77;1719279;83;21043;-81
2021/12/01 03:22:38;;;;;;;22.50;13.55;;;;;;;-1.48;100.00;97916.67;1729866;80;21189;-82
2021/12/01 03:25:12;;;;;;;24.37;14.00;;;;;;;-1.44;100.00;97928.24;1717028;80;21075;-82
2021/12/01 03:27:39;;;;;;;28.00;15.00;;;;;;;-1.41;100.00;97924.28;1743917;82;21813;-84
2021/12/01 03:30:12;;;;;;;26.62;14.40;;;;;;;-1.39;100.00;97920.78;1744169;82;21029;-86
2021/12/01 03:32:39;;;;;;;30.50;16.40;;;;;;;-1.38;100.00;97919.03;1744670;82;21560;-89
2021/12/01 03:35:12;;;;;;;30.15;16.05;;;;;;;-1.39;100.00;97911.73;1744051;82;21041;-84
2021/12/01 03:37:41;;;;;;;28.12;15.50;;;;;;;-1.37;100.00;97914.30;1744269;82;21053;-81
2021/12/01 03:40:11;;;;;;;37.10;16.87;;;;;;;-1.35;100.00;97916.40;1715337;82;21550;-85
2021/12/01 03:42:38;;;;;;;29.45;15.38;;;;;;;-1.34;100.00;97911.63;1717125;83;21069;-80
2021/12/01 03:45:07;;;;;;;30.25;16.30;;;;;;;-1.31;100.00;97915.45;1716736;83;21131;-81
2021/12/01 03:47:33;;;;;;;29.72;16.25;;;;;;;-1.29;100.00;97913.23;1717071;83;21041;-80
2021/12/01 03:50:01;;;;;;;26.90;14.28;;;;;;;-1.25;100.00;97917.86;1716956;83;21014;-81
2021/12/01 03:52:29;;;;;;;30.05;15.23;;;;;;;-1.23;100.00;97913.50;1716831;83;21034;-81
2021/12/01 03:54:56;;;;;;;33.18;15.50;;;;;;;-1.21;100.00;97913.02;1716946;83;21260;-77
2021/12/01 03:57:23;;;;;;;23.30;12.82;;;;;;;-1.17;100.00;97908.20;1716467;83;21527;-78
2021/12/01 03:59:50;;;;;;;24.43;12.88;;;;;;;-1.17;100.00;97911.23;1714562;83;21620;-79
2021/12/01 04:02:16;;;;;;;25.95;12.90;;;;;;;-1.19;100.00;97907.38;1715194;83;21099;-80
2021/12/01 04:04:43;;;;;;;29.10;16.95;;;;;;;-1.21;100.00;97909.15;1714571;83;21530;-80
2021/12/01 04:07:09;;;;;;;24.50;12.93;;;;;;;-1.20;100.00;97909.54;1714310;83;21083;-78
2021/12/01 04:09:39;;;;;;;29.12;16.17;;;;;;;-1.20;100.00;97909.99;1714394;83;21012;-79
2021/12/01 04:12:08;;;;;;;24.82;12.80;;;;;;;-1.20;100.00;97908.25;1714862;83;21035;-79
2021/12/01 04:14:36;;;;;;;27.27;14.43;;;;;;;-1.22;100.00;97903.59;1714361;83;21126;-80
2021/12/01 04:17:08;;;;;;;33.20;16.67;;;;;;;-1.19;100.00;97904.80;1714870;83;21115;-80
2021/12/01 04:19:33;;;;;;;27.90;15.57;;;;;;;-1.15;100.00;97903.84;1714499;83;21598;-85
2021/12/01 04:22:00;;;;;;;22.80;14.00;;;;;;;-1.15;100.00;97903.84;1714811;83;21546;-84
2021/12/01 04:24:27;;;;;;;29.07;15.98;;;;;;;-1.15;100.00;97907.72;1714805;83;21087;-82
2021/12/01 04:26:54;;;;;;;25.70;14.45;;;;;;;-1.13;100.00;97899.48;1715080;83;21074;-84
2021/12/01 04:29:21;;;;;;;29.50;15.68;;;;;;;-1.10;100.00;97894.68;1716443;83;21184;-82
2021/12/01 04:31:48;;;;;;;28.38;14.53;;;;;;;-1.07;100.00;97899.30;1716570;83;21007;-83
2021/12/01 04:34:14;;;;;;;27.22;14.03;;;;;;;-1.02;100.00;97895.77;1718059;83;21592;-82
2021/12/01 04:39:07;;;;;;;27.83;14.73;;;;;;;-0.91;100.00;97897.17;1795443;79;22579;-80
2021/12/01 04:41:39;;;;;;;30.65;15.28;;;;;;;-0.94;100.00;97899.01;1755896;81;21025;-81
2021/12/01 04:44:14;;;;;;;30.17;14.83;;;;;;;-0.95;100.00;97897.30;1752018;81;21169;-82
2021/12/01 04:46:43;;;;;;;25.57;13.43;;;;;;;-0.96;100.00;97896.45;1748924;82;21098;-83
2021/12/01 04:49:11;;;;;;;28.65;13.62;;;;;;;-0.93;100.00;97899.40;1750227;82;21767;-80
2021/12/01 04:51:40;;;;;;;26.42;14.93;;;;;;;-0.94;100.00;97893.84;1749926;82;21108;-79
2021/12/01 04:54:07;;;;;;;26.42;14.03;;;;;;;-0.91;100.00;97900.20;1750465;81;21068;-79
2021/12/01 04:56:34;;;;;;;28.15;15.65;;;;;;;-0.91;100.00;97901.50;1753335;81;21118;-75
2021/12/01 04:59:01;;;;;;;31.05;15.25;;;;;;;-0.91;100.00;97897.63;1755494;80;21562;-68
2021/12/01 05:01:28;;;;;;;29.27;16.17;;;;;;;-0.92;100.00;97901.08;1778127;80;21559;-67
2021/12/01 05:03:55;;;;;;;30.25;17.40;;;;;;;-0.94;100.00;97895.13;1769224;80;21029;-68
2021/12/01 05:06:22;;;;;;;27.07;16.07;;;;;;;-0.95;100.00;97894.70;1779355;80;21007;-69
2021/12/01 05:08:49;;;;;;;29.20;16.25;;;;;;;-0.97;100.00;97899.06;1782233;80;21088;-69
2021/12/01 05:11:18;;;;;;;30.27;16.37;;;;;;;-0.97;100.00;97903.78;1781353;80;21543;-70
2021/12/01 05:13:45;;;;;;;25.52;14.90;;;;;;;-0.96;100.00;97897.75;1781715;80;21041;-68
2021/12/01 05:16:11;;;;;;;29.20;16.05;;;;;;;-0.94;100.00;97900.30;1781846;80;21061;-68
2021/12/01 05:18:38;;;;;;;25.35;14.58;;;;;;;-0.96;100.00;97900.78;1782228;80;21559;-67
2021/12/01 05:21:05;;;;;;;25.85;14.95;;;;;;;-0.93;100.00;97903.27;1768171;80;21131;-68
2021/12/01 05:23:33;;;;;;;28.85;16.32;;;;;;;-0.92;100.00;97907.54;1780203;80;21028;-69
2021/12/01 05:26:00;;;;;;;22.98;13.88;;;;;;;-0.93;100.00;97913.61;1764378;80;21040;-69
2021/12/01 05:28:26;;;;;;;26.45;15.55;;;;;;;-0.92;100.00;97920.45;1762095;80;21091;-67
2021/12/01 05:30:53;;;;;;;28.23;16.37;;;;;;;-0.85;100.00;97924.60;1758523;81;21550;-67
2021/12/01 05:33:19;;;;;;;22.55;14.33;;;;;;;-0.82;100.00;97924.96;1765930;80;22586;-67
2021/12/01 05:35:46;;;;;;;20.75;13.43;;;;;;;-0.81;100.00;97914.56;1774932;80;21039;-68
2021/12/01 05:38:13;;;;;;;20.32;12.98;;;;;;;-0.76;100.00;97921.77;1768881;80;21088;-69
2021/12/01 05:40:40;;;;;;;23.52;14.13;;;;;;;-0.74;100.00;97923.84;1761746;80;21647;-69
2021/12/01 05:43:07;;;;;;;25.52;14.28;;;;;;;-0.72;100.00;97927.23;1769014;80;21485;-69
2021/12/01 05:45:33;;;;;;;22.77;13.50;;;;;;;-0.68;100.00;97934.03;1778494;80;21525;-68
2021/12/01 05:48:00;;;;;;;23.67;14.70;;;;;;;-0.67;100.00;97926.70;1764422;79;21032;-69
2021/12/01 05:50:27;;;;;;;24.30;13.55;;;;;;;-0.62;100.00;97932.16;1769933;80;21088;-71
2021/12/01 05:52:53;;;;;;;22.32;11.53;;;;;;;-0.64;100.00;97939.53;1762813;80;21568;-70
2021/12/01 05:55:20;;;;;;;26.45;14.63;;;;;;;-0.57;100.00;97941.96;1760688;80;21084;-69
2021/12/01 05:57:47;;;;;;;20.80;11.85;;;;;;;-0.54;100.00;97939.28;1770678;80;22072;-70
2021/12/01 06:00:14;;;;;;;30.65;15.93;;;;;;;-0.53;100.00;97948.72;1752218;80;21001;-69
2021/12/01 06:02:49;;;;;;;34.20;15.65;;;;;;;-0.49;100.00;97951.17;1747168;82;21021;-69
2021/12/01 06:05:10;;;;;;;26.48;13.32;;;;;;;-0.45;100.00;97957.13;1745147;82;21013;-72
2021/12/01 06:07:39;;;;;;;22.60;13.18;;;;;;;-0.43;100.00;97958.77;1754153;80;21009;-69
2021/12/01 06:10:07;;;;;;;19.57;10.80;;;;;;;-0.35;100.00;97966.31;1778179;80;21110;-70
2021/12/01 06:12:33;;;;;;;25.80;12.55;;;;;;;-0.31;100.00;97967.09;1777510;80;21041;-70
2021/12/01 06:15:01;;;;;;;19.80;11.80;;;;;;;-0.24;100.00;97969.45;1771499;80;21033;-69
2021/12/01 06:17:28;;;;;;;23.60;10.60;;;;;;;-0.20;100.00;97974.56;1750704;80;21485;-69
2021/12/01 06:19:54;;;;;;;22.98;12.40;;;;;;;-0.16;100.00;97980.03;1747256;82;21028;-69
2021/12/01 06:22:21;;;;;;;24.65;13.03;;;;;;;-0.10;100.00;97976.82;1747507;82;21090;-71
2021/12/01 06:24:48;;;;;;;25.48;13.85;;;;;;;-0.08;100.00;97972.45;1754192;79;21033;-71
2021/12/01 06:27:14;;;;;;;22.65;12.68;;;;;;;-0.15;100.00;97971.39;1747517;82;20998;-71
2021/12/01 06:29:41;;;;;;;25.48;12.82;;;;;;;-0.16;100.00;97978.73;1762823;80;21560;-69
2021/12/01 06:32:08;;;;;;;23.60;14.03;;;;;;;-0.19;100.00;97984.84;1763455;80;21497;-68
2021/12/01 06:34:35;;;;;;;24.40;13.25;;;;;;;-0.25;100.00;97975.53;1740851;80;21101;-67
2021/12/01 06:37:04;;;;;;;35.92;18.25;;;;;;;-0.27;100.00;97982.94;1746953;82;21041;-68
2021/12/01 06:39:31;;;;;;;25.68;15.20;;;;;;;-0.29;100.00;97979.09;1769118;80;21032;-76
2021/12/01 06:41:58;;;;;;;24.07;14.70;;;;;;;-0.29;100.00;97984.26;1773395;80;21036;-68
2021/12/01 06:44:24;;;;;;;21.75;13.60;;;;;;;-0.28;100.00;97991.11;1777866;80;21054;-69
2021/12/01 06:46:52;;;;;;;22.90;13.38;;;;;;;-0.27;100.00;97992.83;1760082;80;21525;-69
2021/12/01 06:49:18;;;;;;;23.95;14.43;;;;;;;-0.23;100.00;98002.20;1746734;80;21020;-68
2021/12/01 06:51:45;;;;;;;25.27;14.93;;;;;;;-0.18;100.00;97998.63;1771895;80;21037;-69
2021/12/01 06:54:13;;;;;;;26.62;15.15;;;;;;;0.01;100.00;98005.45;1759967;80;21024;-68
2021/12/01 06:56:40;;;;;;;30.50;15.72;;;;;;;0.03;100.00;98010.98;1751237;80;21052;-68
2021/12/01 06:59:07;;;;;;;21.42;13.78;;;;;;;0.19;100.00;98007.05;1745096;80;21137;-69
2021/12/01 07:01:34;;;;;;;27.40;14.07;;;;;;;0.33;100.00;98009.23;1770224;80;21030;-69
2021/12/01 07:04:00;;;;;;;21.17;13.38;;;;;;;0.44;100.00;98019.28;1767008;80;22260;-68
2021/12/01 07:06:29;;;;;;;21.82;13.30;;;;;;;0.54;100.00;98021.14;1768968;80;21041;-69
2021/12/01 07:08:59;;;;;;;22.60;13.03;;;;;;;0.56;100.00;98021.49;1764512;80;21079;-69
2021/12/01 07:11:26;;;;;;;21.95;13.13;;;;;;;0.68;100.00;98022.02;1756053;80;21112;-69
2021/12/01 07:13:54;;;;;;;21.70;13.58;;;;;;;0.64;100.00;98029.02;1755821;80;21005;-78
2021/12/01 07:16:20;;;;;;;22.25;12.85;;;;;;;0.60;100.00;98030.88;1750790;82;21225;-77
2021/12/01 07:18:47;;;;;;;21.82;13.62;;;;;;;0.68;100.00;98036.27;1758360;80;21060;-82
2021/12/01 07:21:14;;;;;;;23.12;12.95;;;;;;;0.67;100.00;98034.13;1777461;78;20974;-81
2021/12/01 07:23:40;;;;;;;23.98;14.15;;;;;;;0.66;100.00;98027.69;1782255;77;21478;-81
2021/12/01 07:26:07;;;;;;;20.55;12.70;;;;;;;0.72;100.00;98039.16;1724716;80;21020;-70
2021/12/01 07:28:34;;;;;;;22.73;12.15;;;;;;;0.71;100.00;98036.16;1768135;80;21088;-69
2021/12/01 07:31:01;;;;;;;20.65;12.10;;;;;;;0.75;100.00;98039.06;1751135;80;21060;-69
2021/12/01 07:33:27;;;;;;;17.82;11.12;;;;;;;0.76;100.00;98047.22;1764180;80;21040;-70
2021/12/01 07:35:54;;;;;;;21.30;12.10;;;;;;;0.77;100.00;98051.52;1751566;80;21245;-70
2021/12/01 07:38:20;;;;;;;17.25;10.75;;;;;;;0.83;100.00;98048.75;1760539;80;21111;-71
2021/12/01 07:40:47;;;;;;;18.15;10.80;;;;;;;0.84;100.00;98044.80;1760657;80;21021;-70
2021/12/01 07:43:14;;;;;;;18.60;11.03;;;;;;;0.93;100.00;98048.02;1765649;80;21685;-70
2021/12/01 07:45:43;;;;;;;19.50;12.15;;;;;;;0.94;100.00;98045.35;1783750;80;21263;-71
2021/12/01 07:48:12;;;;;;;15.90;9.78;;;;;;;0.97;100.00;98051.76;1768596;80;21079;-70
2021/12/01 07:50:40;;;;;;;14.38;8.68;;;;;;;1.04;100.00;98056.30;1755243;79;21614;-70
2021/12/01 07:53:07;;;;;;;16.07;10.38;;;;;;;1.07;100.00;98052.77;1764403;79;21077;-71
2021/12/01 07:55:33;;;;;;;19.60;10.78;;;;;;;1.07;100.00;98052.77;1768358;79;21016;-70
2021/12/01 07:58:00;;;;;;;14.47;8.95;;;;;;;1.10;100.00;98062.56;1768496;81;21091;-69
2021/12/01 08:00:27;;;;;;;16.15;10.55;;;;;;;1.12;100.00;98062.53;1812542;79;21440;-70
2021/12/01 08:02:54;;;;;;;17.23;10.20;;;;;;;1.18;100.00;98062.34;1739917;81;21065;-69
2021/12/01 08:05:20;;;;;;;17.60;9.95;;;;;;;1.19;100.00;98073.09;1746670;82;21064;-69
2021/12/01 08:07:50;;;;;;;16.93;10.23;;;;;;;1.22;100.00;98074.28;1739847;82;21048;-71
2021/12/01 08:10:18;;;;;;;16.40;9.98;;;;;;;1.24;100.00;98081.57;1729782;82;21108;-71
2021/12/01 08:12:45;;;;;;;15.28;10.25;;;;;;;1.22;100.00;98078.17;1733385;82;21052;-70
2021/12/01 08:15:12;;;;;;;20.02;11.45;;;;;;;1.23;100.00;98082.48;1731104;82;21025;-70
2021/12/01 08:17:39;;;;;;;13.28;8.73;;;;;;;1.23;100.00;98082.48;1693591;80;21040;-72
2021/12/01 08:20:08;;;;;;;23.73;10.72;;;;;;;1.22;100.00;98083.36;1772189;80;21123;-71
2021/12/01 08:22:37;;;;;;;15.85;10.65;;;;;;;1.31;100.00;98096.06;1754843;79;21066;-73
2021/12/01 08:25:05;;;;;;;17.92;9.70;;;;;;;1.35;100.00;98097.64;1714693;81;21173;-72
2021/12/01 08:27:32;;;;;;;18.82;10.28;;;;;;;1.38;100.00;98105.34;1687653;84;21136;-73
2021/12/01 08:29:59;;;;;;;16.82;10.63;;;;;;;1.36;100.00;98104.53;1702497;82;21064;-71
2021/12/01 08:32:25;;;;;;;17.02;10.10;;;;;;;1.36;100.00;98104.53;1746450;80;21438;-71
2021/12/01 08:34:53;;;;;;;18.35;11.03;;;;;;;1.39;100.00;98118.69;1706582;82;21055;-72
2021/12/01 08:37:21;;;;;;;18.90;11.33;;;;;;;1.40;100.00;98127.31;1765632;79;21553;-71
2021/12/01 08:39:49;;;;;;;22.37;12.28;;;;;;;1.38;100.00;98125.21;1768740;79;21608;-71
2021/12/01 08:42:17;;;;;;;18.20;11.12;;;;;;;1.32;100.00;98134.05;1719519;81;21248;-71
2021/12/01 08:44:47;;;;;;;17.00;11.33;;;;;;;1.26;100.00;98132.94;1737780;82;21112;-71
2021/12/01 08:47:20;;;;;;;18.25;12.05;;;;;;;1.22;100.00;98135.22;1758253;80;21064;-71
2021/12/01 08:49:47;;;;;;;17.62;11.35;;;;;;;1.23;100.00;98135.64;1726303;82;21752;-71
2021/12/01 08:52:14;;;;;;;15.85;9.85;;;;;;;1.24;100.00;98139.91;1717961;82;21054;-71
2021/12/01 08:54:40;;;;;;;16.90;10.80;;;;;;;1.25;100.00;98141.63;1762709;80;21109;-72
2021/12/01 08:57:07;;;;;;;17.37;11.45;;;;;;;1.29;100.00;98147.55;1770154;80;21089;-73
2021/12/01 08:59:35;;;;;;;19.48;12.23;;;;;;;1.30;100.00;98144.08;1744680;80;21093;-72
2021/12/01 09:02:03;;;;;;;18.20;10.93;;;;;;;1.31;100.00;98142.74;1741026;82;21502;-70
2021/12/01 09:04:30;;;;;;;18.27;11.50;;;;;;;1.33;100.00;98145.27;1745483;80;21506;-72
2021/12/01 09:06:57;;;;;;;21.27;12.18;;;;;;;1.42;100.00;98144.52;1758348;80;21057;-72
2021/12/01 09:09:23;;;;;;;16.35;9.83;;;;;;;1.42;100.00;98144.52;1768813;79;21543;-72
2021/12/01 09:11:52;;;;;;;18.57;11.03;;;;;;;1.42;100.00;98141.09;1707836;84;21069;-73
2021/12/01 09:14:19;;;;;;;17.57;10.90;;;;;;;1.52;100.00;98139.03;1741654;82;21069;-73
2021/12/01 09:16:46;;;;;;;18.10;11.80;;;;;;;1.52;100.00;98139.03;1741130;82;21068;-71
2021/12/01 09:19:14;;;;;;;19.37;11.88;;;;;;;1.58;100.00;98155.71;1730447;81;21037;-73
2021/12/01 09:21:40;;;;;;;16.90;10.43;;;;;;;1.59;100.00;98156.13;1758916;81;21462;-73
2021/12/01 09:24:07;;;;;;;17.92;11.85;;;;;;;1.56;100.00;98173.07;1766236;81;21053;-72
2021/12/01 09:26:34;;;;;;;15.58;10.08;;;;;;;1.56;100.00;98171.31;1746884;81;21755;-73
2021/12/01 09:29:02;;;;;;;13.88;9.25;;;;;;;1.58;100.00;98179.06;1673369;85;21096;-71
2021/12/01 09:31:29;;;;;;;16.42;12.45;;;;;;;1.54;100.00;98179.63;1686040;85;21611;-72
2021/12/01 09:33:56;;;;;;;16.25;9.03;;;;;;;1.52;100.00;98185.73;1700232;83;21067;-72
2021/12/01 09:36:23;;;;;;;13.03;8.70;;;;;;;1.52;100.00;98185.73;1683130;85;21135;-72
2021/12/01 09:38:50;;;;;;;15.08;9.78;;;;;;;1.57;100.00;98187.76;1690580;83;21196;-71
2021/12/01 09:41:20;;;;;;;15.55;9.88;;;;;;;1.55;100.00;98197.33;1700525;83;21134;-72
2021/12/01 09:43:47;;;;;;;15.28;9.73;;;;;;;1.50;100.00;98196.64;1652891;85;22044;-72
2021/12/01 09:46:14;;;;;;;17.32;10.23;;;;;;;1.48;100.00;98204.45;1685797;85;21630;-72
2021/12/01 09:48:42;;;;;;;16.52;10.88;;;;;;;1.49;100.00;98216.97;1695706;83;21098;-72
2021/12/01 09:51:08;;;;;;;13.35;8.38;;;;;;;1.49;100.00;98216.97;1687558;83;21495;-72
2021/12/01 09:53:35;;;;;;;14.18;8.08;;;;;;;1.44;100.00;98219.25;1685599;85;21096;-72
2021/12/01 09:56:02;;;;;;;16.02;9.35;;;;;;;1.42;100.00;98231.41;1712381;83;21115;-71
2021/12/01 09:58:32;;;;;;;13.28;8.53;;;;;;;1.41;100.00;98221.95;1685414;85;21036;-71
2021/12/01 10:01:07;;;;;;;12.47;8.65;;;;;;;1.38;100.00;98229.83;1712303;83;21047;-72
2021/12/01 10:03:34;;;;;;;14.38;8.85;;;;;;;1.43;100.00;98238.32;1695699;83;21559;-73
2021/12/01 10:06:17;;;;;;;12.65;8.30;;;;;;;1.43;100.00;98238.32;1659088;86;21079;-70
2021/12/01 10:08:44;;;;;;;14.23;9.00;;;;;;;1.46;100.00;98244.70;1680230;85;21046;-71
2021/12/01 10:11:36;;;;;;;12.82;7.47;;;;;;;1.51;100.00;98235.48;1681500;84;21074;-71
2021/12/01 10:14:18;;;;;;;14.10;9.15;;;;;;;1.49;100.00;98245.50;1681853;83;21102;-72
2021/12/01 10:16:52;;;;;;;13.58;8.78;;;;;;;1.43;100.00;98266.85;1681517;85;21118;-73
2021/12/01 10:19:19;;;;;;;13.53;8.60;;;;;;;1.45;100.00;98269.41;1677833;83;21063;-73
2021/12/01 10:21:48;;;;;;;12.13;8.35;;;;;;;1.45;100.00;98269.41;1738491;82;21002;-72
2021/12/01 10:24:23;;;;;;;12.58;8.03;;;;;;;1.46;100.00;98274.53;1729999;82;21013;-70
2021/12/01 10:26:59;;;;;;;11.95;8.28;;;;;;;1.49;100.00;98277.48;1714737;82;21052;-71
2021/12/01 10:29:30;;;;;;;11.83;8.30;;;;;;;1.52;100.00;98285.61;1704288;84;21595;-71
2021/12/01 10:32:09;;;;;;;12.93;8.98;;;;;;;1.52;100.00;98285.61;1674950;84;21098;-70
2021/12/01 10:34:46;;;;;;;13.08;8.45;;;;;;;1.53;100.00;98294.66;1703828;84;20993;-72
2021/12/01 10:37:40;;;;;;;12.30;7.92;;;;;;;1.49;100.00;98286.56;1643671;86;21568;-72
2021/12/01 10:39:51;;;;;;;12.68;8.30;;;;;;;1.52;100.00;98293.39;1666533;84;21086;-72
2021/12/01 10:42:18;;;;;;;13.43;7.35;;;;;;;1.51;100.00;98296.90;1707830;82;21147;-72
2021/12/01 10:45:06;;;;;;;10.50;6.97;;;;;;;1.45;100.00;98301.38;1715713;82;21025;-71
2021/12/01 10:47:41;;;;;;;12.80;8.80;;;;;;;1.43;100.00;98297.98;1718564;82;21622;-71
2021/12/01 10:50:15;;;;;;;15.50;8.40;;;;;;;1.45;100.00;98301.84;1718716;82;21572;-73
2021/12/01 10:52:49;;;;;;;14.03;9.15;;;;;;;1.45;100.00;98303.97;1714730;82;21025;-72
2021/12/01 10:55:23;;;;;;;15.03;8.23;;;;;;;1.50;100.00;98309.48;1723074;82;21905;-72
2021/12/01 10:57:57;;;;;;;14.87;9.83;;;;;;;1.49;100.00;98315.55;1727349;82;21017;-73
2021/12/01 11:00:30;;;;;;;14.30;8.85;;;;;;;1.43;100.00;98321.33;1738482;82;21088;-73
2021/12/01 11:03:14;;;;;;;14.35;8.90;;;;;;;1.46;100.00;98318.63;1724839;82;21005;-72
2021/12/01 11:05:49;;;;;;;13.18;9.58;;;;;;;1.46;100.00;98321.67;1729915;82;21595;-73
2021/12/01 11:08:31;;;;;;;11.08;7.55;;;;;;;1.47;100.00;98322.06;1732982;82;21100;-73
2021/12/01 11:11:08;;;;;;;12.58;8.45;;;;;;;1.49;100.00;98324.63;1703147;83;21625;-72
2021/12/01 11:13:38;;;;;;;13.75;8.28;;;;;;;1.49;100.00;98324.63;1699010;83;21098;-71
2021/12/01 11:16:07;;;;;;;13.93;8.33;;;;;;;1.49;100.00;98332.41;1731973;82;21060;-71
2021/12/01 11:18:35;;;;;;;12.45;8.95;;;;;;;1.45;100.00;98336.86;1724725;81;21112;-72
2021/12/01 11:21:12;;;;;;;13.90;9.18;;;;;;;1.45;100.00;98336.86;1707373;83;21548;-73
2021/12/01 11:23:42;;;;;;;13.62;8.43;;;;;;;1.41;100.00;98341.27;1718018;83;21076;-72
2021/12/01 11:26:20;;;;;;;12.88;8.43;;;;;;;1.39;100.00;98337.86;1738722;81;21058;-72
2021/12/01 11:28:50;;;;;;;11.65;8.10;;;;;;;1.31;100.00;98342.44;1737145;80;21085;-72
2021/12/01 11:31:29;;;;;;;14.23;9.10;;;;;;;1.31;100.00;98342.44;1736624;80;21093;-72
2021/12/01 11:33:59;;;;;;;12.73;8.43;;;;;;;1.26;100.00;98341.69;1721858;83;22159;-73
2021/12/01 11:36:36;;;;;;;15.58;8.90;;;;;;;1.23;100.00;98342.62;1721622;82;21056;-71
2021/12/01 11:39:08;;;;;;;14.50;8.68;;;;;;;1.22;100.00;98347.84;1734123;80;21547;-72
2021/12/01 11:41:38;;;;;;;12.60;8.90;;;;;;;1.22;100.00;98340.06;1721585;81;21073;-71
2021/12/01 11:44:04;;;;;;;13.25;9.03;;;;;;;1.22;100.00;98340.06;1722004;82;21049;-71